createdAt,value
2023-05-21T00:00:19.323Z,14.91
2023-05-21T00:01:19.317Z,14.87
2023-05-21T00:02:19.320Z,14.87
2023-05-21T00:03:19.460Z,14.86
2023-05-21T00:04:19.288Z,14.86
2023-05-21T00:05:19.263Z,14.85
2023-05-21T00:06:19.338Z,14.85
2023-05-21T00:07:19.253Z,14.83
2023-05-21T00:08:19.253Z,14.82
2023-05-21T00:09:19.213Z,14.80
2023-05-21T00:10:19.228Z,14.78
2023-05-21T00:11:19.197Z,14.75
2023-05-21T00:12:19.203Z,14.74
2023-05-21T00:13:19.173Z,14.72
2023-05-21T00:14:19.186Z,14.74
2023-05-21T00:15:19.165Z,14.72
2023-05-21T00:16:19.179Z,14.71
2023-05-21T00:17:19.138Z,14.69
2023-05-21T00:18:19.149Z,14.67
2023-05-21T00:19:19.169Z,14.66
2023-05-21T00:20:19.106Z,14.66
2023-05-21T00:21:19.092Z,14.63
2023-05-21T00:22:19.081Z,14.61
2023-05-21T00:23:19.072Z,14.59
2023-05-21T00:24:19.064Z,14.57
2023-05-21T00:25:19.051Z,14.57
2023-05-21T00:26:19.052Z,14.54
2023-05-21T00:27:19.018Z,14.52
2023-05-21T00:28:19.012Z,14.52
2023-05-21T00:29:19.003Z,14.49
2023-05-21T00:30:18.999Z,14.46
2023-05-21T00:31:19.111Z,14.45
2023-05-21T00:32:18.965Z,14.45
2023-05-21T00:33:18.951Z,14.44
2023-05-21T00:34:18.941Z,14.45
2023-05-21T00:35:18.939Z,14.44
2023-05-21T00:36:18.944Z,14.42
2023-05-21T00:37:18.907Z,14.45
2023-05-21T00:38:18.899Z,14.44
2023-05-21T00:39:18.882Z,14.42
2023-05-21T00:40:18.892Z,14.42
2023-05-21T00:41:18.861Z,14.41
2023-05-21T00:42:18.862Z,14.39
2023-05-21T00:43:18.845Z,14.36
2023-05-21T00:44:18.832Z,14.36
2023-05-21T00:45:18.852Z,14.36
2023-05-21T00:46:18.830Z,14.35
2023-05-21T00:47:18.795Z,14.34
2023-05-21T00:48:18.787Z,14.30
2023-05-21T00:49:18.770Z,14.29
2023-05-21T00:50:18.782Z,14.27
2023-05-21T00:51:18.933Z,14.27
2023-05-21T00:52:18.740Z,14.29
2023-05-21T00:53:18.723Z,14.29
2023-05-21T00:54:18.732Z,14.26
2023-05-21T00:55:18.758Z,14.23
2023-05-21T00:56:18.697Z,14.23
2023-05-21T00:57:18.683Z,14.21
2023-05-21T00:58:18.674Z,14.23
2023-05-21T00:59:18.664Z,14.21
2023-05-21T01:00:18.650Z,14.23
2023-05-21T01:01:18.669Z,14.23
2023-05-21T01:02:18.650Z,14.20
2023-05-21T01:03:18.670Z,14.23
2023-05-21T01:04:18.616Z,14.21
2023-05-21T01:05:18.596Z,14.19
2023-05-21T01:06:18.585Z,14.19
2023-05-21T01:07:18.568Z,14.17
2023-05-21T01:08:18.570Z,14.19
2023-05-21T01:09:18.560Z,14.19
2023-05-21T01:10:18.537Z,14.19
2023-05-21T01:11:18.531Z,14.19
2023-05-21T01:12:18.518Z,14.17
2023-05-21T01:13:18.515Z,14.17
2023-05-21T01:14:18.503Z,14.17
2023-05-21T01:15:18.485Z,14.17
2023-05-21T01:16:18.517Z,14.17
2023-05-21T01:17:18.474Z,14.17
2023-05-21T01:18:18.498Z,14.13
2023-05-21T01:19:18.643Z,14.11
2023-05-21T01:20:18.444Z,14.11
2023-05-21T01:21:18.430Z,14.11
2023-05-21T01:22:18.407Z,14.09
2023-05-21T01:23:18.403Z,14.09
2023-05-21T01:24:18.378Z,14.09
2023-05-21T01:25:18.386Z,14.11
2023-05-21T01:26:18.396Z,14.09
2023-05-21T01:27:18.369Z,14.08
2023-05-21T01:28:18.345Z,14.09
2023-05-21T01:29:18.332Z,14.11
2023-05-21T01:30:18.318Z,14.09
2023-05-21T01:31:18.304Z,14.08
2023-05-21T01:32:18.299Z,14.06
2023-05-21T01:33:18.384Z,14.05
2023-05-21T01:34:18.270Z,14.04
2023-05-21T01:35:18.261Z,14.05
2023-05-21T01:36:18.255Z,14.05
2023-05-21T01:37:18.247Z,14.05
2023-05-21T01:38:18.279Z,14.06
2023-05-21T01:39:18.224Z,14.05
2023-05-21T01:40:18.213Z,14.05
2023-05-21T01:41:18.248Z,14.04
2023-05-21T01:42:18.186Z,14.04
2023-05-21T01:43:18.178Z,14.04
2023-05-21T01:44:18.160Z,14.05
2023-05-21T01:45:18.152Z,14.04
2023-05-21T01:46:18.186Z,14.05
2023-05-21T01:47:18.129Z,14.04
2023-05-21T01:48:18.113Z,14.05
2023-05-21T01:49:18.120Z,14.05
2023-05-21T01:50:18.104Z,14.04
2023-05-21T01:51:18.136Z,14.02
2023-05-21T01:52:18.072Z,14.04
2023-05-21T01:53:18.076Z,14.02
2023-05-21T01:54:18.066Z,14.01
2023-05-21T01:55:18.052Z,13.99
2023-05-21T01:56:18.020Z,13.98
2023-05-21T01:57:18.028Z,13.99
2023-05-21T01:58:18.010Z,13.98
2023-05-21T01:59:17.995Z,13.98
2023-05-21T02:00:17.991Z,13.96
2023-05-21T02:01:17.997Z,13.98
2023-05-21T02:02:17.994Z,13.94
2023-05-21T02:03:18.027Z,13.94
2023-05-21T02:04:17.945Z,13.93
2023-05-21T02:05:17.941Z,13.93
2023-05-21T02:06:17.916Z,13.93
2023-05-21T02:07:17.910Z,13.94
2023-05-21T02:08:17.894Z,13.93
2023-05-21T02:09:17.889Z,13.93
2023-05-21T02:10:17.870Z,13.93
2023-05-21T02:11:17.874Z,13.91
2023-05-21T02:12:17.858Z,13.91
2023-05-21T02:13:17.854Z,13.90
2023-05-21T02:14:17.837Z,13.91
2023-05-21T02:15:18.037Z,13.90
2023-05-21T02:16:17.872Z,13.90
2023-05-21T02:17:17.807Z,13.90
2023-05-21T02:18:17.792Z,13.90
2023-05-21T02:19:17.822Z,13.91
2023-05-21T02:20:17.762Z,13.90
2023-05-21T02:21:17.759Z,13.88
2023-05-21T02:22:17.734Z,13.87
2023-05-21T02:23:17.742Z,13.87
2023-05-21T02:24:17.721Z,13.87
2023-05-21T02:25:17.733Z,13.84
2023-05-21T02:26:17.697Z,13.84
2023-05-21T02:27:17.747Z,13.84
2023-05-21T02:28:17.685Z,13.81
2023-05-21T02:29:17.668Z,13.80
2023-05-21T02:30:17.653Z,13.80
2023-05-21T02:31:17.649Z,13.79
2023-05-21T02:32:17.640Z,13.79
2023-05-21T02:33:17.622Z,13.79
2023-05-21T02:34:17.672Z,13.76
2023-05-21T02:35:17.673Z,13.75
2023-05-21T02:36:17.593Z,13.75
2023-05-21T02:37:17.597Z,13.73
2023-05-21T02:38:17.565Z,13.75
2023-05-21T02:39:17.571Z,13.73
2023-05-21T02:40:17.547Z,13.72
2023-05-21T02:41:17.543Z,13.73
2023-05-21T02:42:17.532Z,13.72
2023-05-21T02:43:17.524Z,13.72
2023-05-21T02:44:17.497Z,13.72
2023-05-21T02:45:17.493Z,13.71
2023-05-21T02:46:17.505Z,13.71
2023-05-21T02:47:17.480Z,13.72
2023-05-21T02:48:17.450Z,13.71
2023-05-21T02:49:17.445Z,13.72
2023-05-21T02:50:17.435Z,13.71
2023-05-21T02:51:17.434Z,13.69
2023-05-21T02:52:17.403Z,13.68
2023-05-21T02:53:17.446Z,13.68
2023-05-21T02:54:17.430Z,13.68
2023-05-21T02:55:17.409Z,13.66
2023-05-21T02:56:17.377Z,13.66
2023-05-21T02:57:17.356Z,13.65
2023-05-21T02:58:17.357Z,13.66
2023-05-21T02:59:17.328Z,13.66
2023-05-21T03:00:17.326Z,13.65
2023-05-21T03:01:17.382Z,13.65
2023-05-21T03:02:17.381Z,13.66
2023-05-21T03:03:17.329Z,13.66
2023-05-21T03:04:17.270Z,13.65
2023-05-21T03:05:17.270Z,13.65
2023-05-21T03:06:17.261Z,13.65
2023-05-21T03:07:17.275Z,13.62
2023-05-21T03:08:17.234Z,13.63
2023-05-21T03:09:17.225Z,13.62
2023-05-21T03:10:17.222Z,13.62
2023-05-21T03:11:17.192Z,13.61
2023-05-21T03:12:17.284Z,13.61
2023-05-21T03:13:17.195Z,13.61
2023-05-21T03:14:17.179Z,13.62
2023-05-21T03:15:17.303Z,13.63
2023-05-21T03:16:17.160Z,13.61
2023-05-21T03:17:17.190Z,13.62
2023-05-21T03:18:17.121Z,13.61
2023-05-21T03:19:17.237Z,13.61
2023-05-21T03:20:17.214Z,13.61
2023-05-21T03:21:17.081Z,13.59
2023-05-21T03:22:17.079Z,13.59
2023-05-21T03:23:17.097Z,13.57
2023-05-21T03:24:17.065Z,13.54
2023-05-21T03:25:17.074Z,13.54
2023-05-21T03:26:17.033Z,13.54
2023-05-21T03:27:17.098Z,13.54
2023-05-21T03:28:17.012Z,13.54
2023-05-21T03:29:17.017Z,13.53
2023-05-21T03:30:16.991Z,13.53
2023-05-21T03:31:16.974Z,13.53
2023-05-21T03:32:17.004Z,13.53
2023-05-21T03:33:16.969Z,13.53
2023-05-21T03:34:17.191Z,13.51
2023-05-21T03:35:16.928Z,13.48
2023-05-21T03:36:17.051Z,13.50
2023-05-21T03:37:16.907Z,13.48
2023-05-21T03:38:16.914Z,13.48
2023-05-21T03:39:16.887Z,13.48
2023-05-21T03:40:16.883Z,13.48
2023-05-21T03:41:16.885Z,13.48
2023-05-21T03:42:16.980Z,13.46
2023-05-21T03:43:16.861Z,13.46
2023-05-21T03:44:16.836Z,13.47
2023-05-21T03:45:16.818Z,13.46
2023-05-21T03:46:16.863Z,13.43
2023-05-21T03:47:16.820Z,13.41
2023-05-21T03:48:16.800Z,13.41
2023-05-21T03:49:16.778Z,13.39
2023-05-21T03:50:16.790Z,13.41
2023-05-21T03:51:16.762Z,13.39
2023-05-21T03:52:16.756Z,13.41
2023-05-21T03:53:16.778Z,13.41
2023-05-21T03:54:16.872Z,13.39
2023-05-21T03:55:16.709Z,13.36
2023-05-21T03:56:16.705Z,13.35
2023-05-21T03:57:16.700Z,13.32
2023-05-21T03:58:16.676Z,13.31
2023-05-21T03:59:16.681Z,13.31
2023-05-21T04:00:16.794Z,13.31
2023-05-21T04:01:16.895Z,13.31
2023-05-21T04:02:16.992Z,13.28
2023-05-21T04:03:16.719Z,13.28
2023-05-21T04:04:16.756Z,13.28
2023-05-21T04:05:16.636Z,13.28
2023-05-21T04:06:16.611Z,13.25
2023-05-21T04:07:16.586Z,13.22
2023-05-21T04:08:16.619Z,13.22
2023-05-21T04:09:16.577Z,13.24
2023-05-21T04:10:16.543Z,13.24
2023-05-21T04:11:16.541Z,13.22
2023-05-21T04:12:16.525Z,13.22
2023-05-21T04:13:16.512Z,13.19
2023-05-21T04:14:16.534Z,13.22
2023-05-21T04:15:16.590Z,13.21
2023-05-21T04:16:16.693Z,13.21
2023-05-21T04:17:16.549Z,13.21
2023-05-21T04:18:16.591Z,13.22
2023-05-21T04:19:16.472Z,13.24
2023-05-21T04:20:16.648Z,13.25
2023-05-21T04:21:16.437Z,13.25
2023-05-21T04:22:16.418Z,13.27
2023-05-21T04:23:16.403Z,13.28
2023-05-21T04:24:16.620Z,13.31
2023-05-21T04:25:16.403Z,13.32
2023-05-21T04:26:16.371Z,13.35
2023-05-21T04:27:16.364Z,13.32
2023-05-21T04:28:16.520Z,13.35
2023-05-21T04:29:16.425Z,13.38
2023-05-21T04:30:16.521Z,13.39
2023-05-21T04:31:16.351Z,13.43
2023-05-21T04:32:16.313Z,13.44
2023-05-21T04:33:16.302Z,13.47
2023-05-21T04:34:16.401Z,13.48
2023-05-21T04:35:16.283Z,13.53
2023-05-21T04:36:16.272Z,13.54
2023-05-21T04:37:16.248Z,13.59
2023-05-21T04:38:16.239Z,13.59
2023-05-21T04:39:16.269Z,13.59
2023-05-21T04:40:16.217Z,13.61
2023-05-21T04:41:16.205Z,13.61
2023-05-21T04:42:16.196Z,13.65
2023-05-21T04:43:16.184Z,13.66
2023-05-21T04:44:16.176Z,13.71
2023-05-21T04:45:16.160Z,13.73
2023-05-21T04:46:16.266Z,13.80
2023-05-21T04:47:16.145Z,13.84
2023-05-21T04:48:16.130Z,13.84
2023-05-21T04:49:16.136Z,13.83
2023-05-21T04:50:16.126Z,13.79
2023-05-21T04:51:16.099Z,13.71
2023-05-21T04:52:16.090Z,13.72
2023-05-21T04:53:16.092Z,13.71
2023-05-21T04:54:16.053Z,13.73
2023-05-21T04:55:16.046Z,13.75
2023-05-21T04:56:16.830Z,13.73
2023-05-21T04:57:16.025Z,13.76
2023-05-21T04:58:16.022Z,13.80
2023-05-21T04:59:16.002Z,13.84
2023-05-21T05:00:16.030Z,13.84
2023-05-21T05:01:16.042Z,13.90
2023-05-21T05:02:16.537Z,13.88
2023-05-21T05:03:16.040Z,13.90
2023-05-21T05:04:16.157Z,13.93
2023-05-21T05:05:16.052Z,13.94
2023-05-21T05:06:15.927Z,13.91
2023-05-21T05:07:16.871Z,13.91
2023-05-21T05:08:16.218Z,13.91
2023-05-21T05:09:16.836Z,13.94
2023-05-21T05:10:15.893Z,13.99
2023-05-21T05:11:15.920Z,14.04
2023-05-21T05:12:15.870Z,14.02
2023-05-21T05:13:15.850Z,14.01
2023-05-21T05:14:15.856Z,14.01
2023-05-21T05:15:15.833Z,13.96
2023-05-21T05:16:15.837Z,14.01
2023-05-21T05:17:15.830Z,14.05
2023-05-21T05:18:15.790Z,14.11
2023-05-21T05:19:15.847Z,14.12
2023-05-21T05:20:15.769Z,14.16
2023-05-21T05:21:15.766Z,14.09
2023-05-21T05:22:15.764Z,14.08
2023-05-21T05:23:15.740Z,14.12
2023-05-21T05:24:15.724Z,14.16
2023-05-21T05:25:15.717Z,14.16
2023-05-21T05:26:15.752Z,14.19
2023-05-21T05:27:15.710Z,14.19
2023-05-21T05:28:16.427Z,14.19
2023-05-21T05:29:15.678Z,14.21
2023-05-21T05:30:15.661Z,14.13
2023-05-21T05:31:15.711Z,14.16
2023-05-21T05:32:15.645Z,14.19
2023-05-21T05:33:15.661Z,14.20
2023-05-21T05:34:15.627Z,14.24
2023-05-21T05:35:15.624Z,14.24
2023-05-21T05:36:15.602Z,14.27
2023-05-21T05:37:15.592Z,14.30
2023-05-21T05:38:15.569Z,14.27
2023-05-21T05:39:15.563Z,14.30
2023-05-21T05:40:15.556Z,14.27
2023-05-21T05:41:15.566Z,14.31
2023-05-21T05:42:15.522Z,14.29
2023-05-21T05:43:15.531Z,14.31
2023-05-21T05:44:15.514Z,14.34
2023-05-21T05:45:15.523Z,14.27
2023-05-21T05:46:15.535Z,14.29
2023-05-21T05:47:15.496Z,14.36
2023-05-21T05:48:15.461Z,14.38
2023-05-21T05:49:15.487Z,14.36
2023-05-21T05:50:15.459Z,14.42
2023-05-21T05:51:15.495Z,14.44
2023-05-21T05:52:15.436Z,14.49
2023-05-21T05:53:15.407Z,14.53
2023-05-21T05:54:15.405Z,14.48
2023-05-21T05:55:15.396Z,14.49
2023-05-21T05:56:15.367Z,14.54
2023-05-21T05:57:15.357Z,14.54
2023-05-21T05:58:15.353Z,14.46
2023-05-21T05:59:15.351Z,14.48
2023-05-21T06:00:15.318Z,14.44
2023-05-21T06:01:15.316Z,14.45
2023-05-21T06:02:15.353Z,14.44
2023-05-21T06:03:15.368Z,14.46
2023-05-21T06:04:15.281Z,14.48
2023-05-21T06:05:15.267Z,14.48
2023-05-21T06:06:15.355Z,14.46
2023-05-21T06:07:15.247Z,14.42
2023-05-21T06:08:15.243Z,14.46
2023-05-21T06:09:15.237Z,14.52
2023-05-21T06:10:15.214Z,14.54
2023-05-21T06:11:15.217Z,14.57
2023-05-21T06:12:15.202Z,14.60
2023-05-21T06:13:15.181Z,14.59
2023-05-21T06:14:15.207Z,14.66
2023-05-21T06:15:15.158Z,14.72
2023-05-21T06:16:15.152Z,14.74
2023-05-21T06:17:15.145Z,14.79
2023-05-21T06:18:15.139Z,14.80
2023-05-21T06:19:15.211Z,14.80
2023-05-21T06:20:15.104Z,14.79
2023-05-21T06:21:15.123Z,14.74
2023-05-21T06:22:15.099Z,14.74
2023-05-21T06:23:15.072Z,14.79
2023-05-21T06:24:15.057Z,14.80
2023-05-21T06:25:15.055Z,14.78
2023-05-21T06:26:15.026Z,14.78
2023-05-21T06:27:15.038Z,14.80
2023-05-21T06:28:15.010Z,14.87
2023-05-21T06:29:15.576Z,14.87
2023-05-21T06:30:15.050Z,14.85
2023-05-21T06:31:14.985Z,14.82
2023-05-21T06:32:14.996Z,14.90
2023-05-21T06:33:15.003Z,14.91
2023-05-21T06:34:14.946Z,14.78
2023-05-21T06:35:14.941Z,14.74
2023-05-21T06:36:14.930Z,14.78
2023-05-21T06:37:14.926Z,14.79
2023-05-21T06:38:14.905Z,14.87
2023-05-21T06:39:14.891Z,14.93
2023-05-21T06:40:14.881Z,14.98
2023-05-21T06:41:14.905Z,15.04
2023-05-21T06:42:14.867Z,15.13
2023-05-21T06:43:14.862Z,15.16
2023-05-21T06:44:14.835Z,15.20
2023-05-21T06:45:14.840Z,15.30
2023-05-21T06:46:14.862Z,15.34
2023-05-21T06:47:14.807Z,15.33
2023-05-21T06:48:14.810Z,15.20
2023-05-21T06:49:14.782Z,15.11
2023-05-21T06:50:14.777Z,15.11
2023-05-21T06:51:14.779Z,15.20
2023-05-21T06:52:14.744Z,15.19
2023-05-21T06:53:14.739Z,15.18
2023-05-21T06:54:14.743Z,15.25
2023-05-21T06:55:14.734Z,15.27
2023-05-21T06:56:14.702Z,15.30
2023-05-21T06:57:14.697Z,15.28
2023-05-21T06:58:14.679Z,15.33
2023-05-21T06:59:14.695Z,15.31
2023-05-21T07:00:14.728Z,15.34
2023-05-21T07:01:14.683Z,15.38
2023-05-21T07:02:14.664Z,15.34
2023-05-21T07:03:14.758Z,15.28
2023-05-21T07:04:14.624Z,15.37
2023-05-21T07:05:14.661Z,15.33
2023-05-21T07:06:14.624Z,15.38
2023-05-21T07:07:14.610Z,15.44
2023-05-21T07:08:14.608Z,15.44
2023-05-21T07:09:14.941Z,15.46
2023-05-21T07:10:14.648Z,15.56
2023-05-21T07:11:14.634Z,15.55
2023-05-21T07:12:14.524Z,15.66
2023-05-21T07:13:14.513Z,15.67
2023-05-21T07:14:14.536Z,15.70
2023-05-21T07:15:14.489Z,15.80
2023-05-21T07:16:14.591Z,15.89
2023-05-21T07:17:14.484Z,15.88
2023-05-21T07:18:14.501Z,15.76
2023-05-21T07:19:14.585Z,15.74
2023-05-21T07:20:14.443Z,15.78
2023-05-21T07:21:14.434Z,15.76
2023-05-21T07:22:14.420Z,15.66
2023-05-21T07:23:14.434Z,15.67
2023-05-21T07:24:14.429Z,15.71
2023-05-21T07:25:14.380Z,15.73
2023-05-21T07:26:14.379Z,15.84
2023-05-21T07:27:24.717Z,15.92
2023-05-21T07:28:14.361Z,16.04
2023-05-21T07:29:14.342Z,15.96
2023-05-21T07:30:14.327Z,15.95
2023-05-21T07:31:14.372Z,15.91
2023-05-21T07:32:14.305Z,15.91
2023-05-21T07:33:14.330Z,15.92
2023-05-21T07:34:14.606Z,15.89
2023-05-21T07:35:14.274Z,15.93
2023-05-21T07:36:14.254Z,16.03
2023-05-21T07:37:14.263Z,16.11
2023-05-21T07:38:14.248Z,16.08
2023-05-21T07:39:14.238Z,16.11
2023-05-21T07:40:14.223Z,16.10
2023-05-21T07:41:15.500Z,16.18
2023-05-21T07:42:14.206Z,16.32
2023-05-21T07:43:14.218Z,16.23
2023-05-21T07:44:14.176Z,16.16
2023-05-21T07:45:14.171Z,16.13
2023-05-21T07:46:14.180Z,16.25
2023-05-21T07:47:14.156Z,16.11
2023-05-21T07:48:14.162Z,16.14
2023-05-21T07:49:14.122Z,16.29
2023-05-21T07:50:14.115Z,16.34
2023-05-21T07:51:14.100Z,16.40
2023-05-21T07:52:14.103Z,16.41
2023-05-21T07:53:14.083Z,16.52
2023-05-21T07:54:14.067Z,16.65
2023-05-21T07:55:14.077Z,16.65
2023-05-21T07:56:14.061Z,16.87
2023-05-21T07:57:14.042Z,16.96
2023-05-21T07:58:14.017Z,16.82
2023-05-21T07:59:14.024Z,16.90
2023-05-21T08:00:14.018Z,16.95
2023-05-21T08:01:14.014Z,17.10
2023-05-21T08:02:13.992Z,17.07
2023-05-21T08:03:14.056Z,16.96
2023-05-21T08:04:14.169Z,17.00
2023-05-21T08:05:14.018Z,17.12
2023-05-21T08:06:13.953Z,17.36
2023-05-21T08:07:14.835Z,17.49
2023-05-21T08:08:13.920Z,17.57
2023-05-21T08:09:13.913Z,17.70
2023-05-21T08:10:13.899Z,18.11
2023-05-21T08:11:13.889Z,18.54
2023-05-21T08:12:13.866Z,18.66
2023-05-21T08:13:13.863Z,18.71
2023-05-21T08:14:13.852Z,18.41
2023-05-21T08:15:13.847Z,18.32
2023-05-21T08:16:13.848Z,18.53
2023-05-21T08:17:13.811Z,18.74
2023-05-21T08:18:13.797Z,19.06
2023-05-21T08:19:13.809Z,18.94
2023-05-21T08:20:13.795Z,19.23
2023-05-21T08:21:13.770Z,19.43
2023-05-21T08:22:13.771Z,19.52
2023-05-21T08:23:13.750Z,19.15
2023-05-21T08:24:13.751Z,19.06
2023-05-21T08:25:13.751Z,18.75
2023-05-21T08:26:13.709Z,18.79
2023-05-21T08:27:13.702Z,18.74
2023-05-21T08:28:13.707Z,19.17
2023-05-21T08:29:13.708Z,19.61
2023-05-21T08:30:13.676Z,20.22
2023-05-21T08:31:13.670Z,20.25
2023-05-21T08:32:13.703Z,20.13
2023-05-21T08:33:13.636Z,19.49
2023-05-21T08:34:13.662Z,19.07
2023-05-21T08:35:13.614Z,18.91
2023-05-21T08:36:13.633Z,18.93
2023-05-21T08:37:13.592Z,18.87
2023-05-21T08:38:13.596Z,18.20
2023-05-21T08:39:13.584Z,18.26
2023-05-21T08:40:13.559Z,17.94
2023-05-21T08:41:13.605Z,17.79
2023-05-21T08:42:17.620Z,17.71
2023-05-21T08:43:13.547Z,17.65
2023-05-21T08:44:13.515Z,17.54
2023-05-21T08:45:13.503Z,17.68
2023-05-21T08:46:13.505Z,17.86
2023-05-21T08:47:13.499Z,17.92
2023-05-21T08:48:13.475Z,17.94
2023-05-21T08:49:13.462Z,17.94
2023-05-21T08:50:13.454Z,17.84
2023-05-21T08:51:13.444Z,17.87
2023-05-21T08:52:13.433Z,17.70
2023-05-21T08:53:23.999Z,17.70
2023-05-21T08:54:13.399Z,17.80
2023-05-21T08:55:13.394Z,17.89
2023-05-21T08:56:13.377Z,18.04
2023-05-21T08:57:13.380Z,18.21
2023-05-21T08:58:13.376Z,18.11
2023-05-21T08:59:13.346Z,18.19
2023-05-21T09:00:13.336Z,18.29
2023-05-21T09:01:13.381Z,18.41
2023-05-21T09:02:13.321Z,18.39
2023-05-21T09:03:13.363Z,18.36
2023-05-21T09:05:13.308Z,18.29
2023-05-21T09:06:13.282Z,18.34
2023-05-21T09:07:13.273Z,18.41
2023-05-21T09:08:13.243Z,18.49
2023-05-21T09:09:13.240Z,18.51
2023-05-21T09:10:13.246Z,18.49
2023-05-21T09:11:13.228Z,18.36
2023-05-21T09:12:13.201Z,18.42
2023-05-21T09:13:13.256Z,18.49
2023-05-21T09:14:13.177Z,18.56
2023-05-21T09:15:13.169Z,18.59
2023-05-21T09:16:13.175Z,18.56
2023-05-21T09:17:13.154Z,18.60
2023-05-21T09:18:13.189Z,18.72
2023-05-21T09:19:13.152Z,18.86
2023-05-21T09:20:13.128Z,18.89
2023-05-21T09:21:13.128Z,18.90
2023-05-21T09:22:13.102Z,18.87
2023-05-21T09:23:13.116Z,18.79
2023-05-21T09:24:13.070Z,18.76
2023-05-21T09:25:13.077Z,18.83
2023-05-21T09:26:13.047Z,18.86
2023-05-21T09:27:13.037Z,18.96
2023-05-21T09:28:13.026Z,19.12
2023-05-21T09:29:13.018Z,19.25
2023-05-21T09:30:13.015Z,19.31
2023-05-21T09:31:13.016Z,19.17
2023-05-21T09:32:12.988Z,19.12
2023-05-21T09:33:13.064Z,19.09
2023-05-21T09:34:12.968Z,19.01
2023-05-21T09:35:12.962Z,19.01
2023-05-21T09:36:12.940Z,19.20
2023-05-21T09:37:23.743Z,19.34
2023-05-21T09:38:12.915Z,19.52
2023-05-21T09:39:12.916Z,19.62
2023-05-21T09:40:12.921Z,19.76
2023-05-21T09:41:12.886Z,19.76
2023-05-21T09:42:14.558Z,19.85
2023-05-21T09:43:14.205Z,19.83
2023-05-21T09:44:13.648Z,19.92
2023-05-21T09:45:14.203Z,19.87
2023-05-21T09:46:13.463Z,19.92
2023-05-21T09:47:12.818Z,19.95
2023-05-21T09:48:12.805Z,20.10
2023-05-21T09:49:12.842Z,20.10
2023-05-21T09:50:12.783Z,20.01
2023-05-21T09:51:12.781Z,20.15
2023-05-21T09:52:12.756Z,20.30
2023-05-21T09:53:12.794Z,20.38
2023-05-21T09:54:12.756Z,20.60
2023-05-21T09:55:12.731Z,20.57
2023-05-21T09:56:12.715Z,20.58
2023-05-21T09:57:12.707Z,20.56
2023-05-21T09:58:12.716Z,20.71
2023-05-21T09:59:12.694Z,20.61
2023-05-21T10:00:12.684Z,20.72
2023-05-21T10:01:12.666Z,20.69
2023-05-21T10:02:12.678Z,20.71
2023-05-21T10:03:12.712Z,20.66
2023-05-21T10:04:12.672Z,20.75
2023-05-21T10:05:12.693Z,20.69
2023-05-21T10:06:12.628Z,20.33
2023-05-21T10:07:12.599Z,20.38
2023-05-21T10:08:12.621Z,20.51
2023-05-21T10:09:12.581Z,20.53
2023-05-21T10:10:12.576Z,20.58
2023-05-21T10:11:12.552Z,20.72
2023-05-21T10:12:12.573Z,20.63
2023-05-21T10:13:12.575Z,20.61
2023-05-21T10:14:12.530Z,20.57
2023-05-21T10:15:12.507Z,20.35
2023-05-21T10:16:12.512Z,20.34
2023-05-21T10:17:12.490Z,20.44
2023-05-21T10:18:12.521Z,20.48
2023-05-21T10:19:12.484Z,20.44
2023-05-21T10:20:12.464Z,20.56
2023-05-21T10:21:12.441Z,20.40
2023-05-21T10:22:12.450Z,20.38
2023-05-21T10:23:12.421Z,20.58
2023-05-21T10:24:12.416Z,20.75
2023-05-21T10:25:12.398Z,20.78
2023-05-21T10:26:12.435Z,20.75
2023-05-21T10:27:12.388Z,20.60
2023-05-21T10:28:12.370Z,20.56
2023-05-21T10:29:12.355Z,20.64
2023-05-21T10:30:12.347Z,20.63
2023-05-21T10:31:12.343Z,20.63
2023-05-21T10:32:12.356Z,20.58
2023-05-21T10:33:12.350Z,20.63
2023-05-21T10:34:12.311Z,20.72
2023-05-21T10:35:12.290Z,20.75
2023-05-21T10:36:12.310Z,20.94
2023-05-21T10:37:12.266Z,20.90
2023-05-21T10:38:12.261Z,21.08
2023-05-21T10:39:12.250Z,21.28
2023-05-21T10:40:12.242Z,21.18
2023-05-21T10:41:12.239Z,21.27
2023-05-21T10:42:12.216Z,21.28
2023-05-21T10:43:12.194Z,21.36
2023-05-21T10:44:12.206Z,21.27
2023-05-21T10:45:12.191Z,21.15
2023-05-21T10:46:12.311Z,21.03
2023-05-21T10:47:12.159Z,21.09
2023-05-21T10:48:12.198Z,21.19
2023-05-21T10:49:12.134Z,21.13
2023-05-21T10:50:12.150Z,21.15
2023-05-21T10:51:12.114Z,21.22
2023-05-21T10:52:12.112Z,21.19
2023-05-21T10:53:12.092Z,21.26
2023-05-21T10:54:12.127Z,21.33
2023-05-21T10:55:12.076Z,21.36
2023-05-21T10:56:12.064Z,21.37
2023-05-21T10:57:12.055Z,21.37
2023-05-21T10:58:12.067Z,21.36
2023-05-21T10:59:12.034Z,21.33
2023-05-21T11:00:12.017Z,21.43
2023-05-21T11:01:12.034Z,21.34
2023-05-21T11:02:12.010Z,21.16
2023-05-21T11:03:12.095Z,21.22
2023-05-21T11:04:11.982Z,21.31
2023-05-21T11:05:11.969Z,21.19
2023-05-21T11:06:11.952Z,21.27
2023-05-21T11:07:11.935Z,21.30
2023-05-21T11:08:11.928Z,21.49
2023-05-21T11:09:11.922Z,21.67
2023-05-21T11:10:11.923Z,21.63
2023-05-21T11:11:11.890Z,21.49
2023-05-21T11:12:11.887Z,21.63
2023-05-21T11:13:11.877Z,21.68
2023-05-21T11:14:11.877Z,21.59
2023-05-21T11:15:11.861Z,21.49
2023-05-21T11:16:11.845Z,21.46
2023-05-21T11:17:11.915Z,21.66
2023-05-21T11:18:11.905Z,21.70
2023-05-21T11:19:11.871Z,21.79
2023-05-21T11:20:11.817Z,21.82
2023-05-21T11:21:11.780Z,21.70
2023-05-21T11:22:11.775Z,21.70
2023-05-21T11:23:11.772Z,21.61
2023-05-21T11:24:11.785Z,21.61
2023-05-21T11:25:11.736Z,21.71
2023-05-21T11:26:11.742Z,21.77
2023-05-21T11:27:11.714Z,21.83
2023-05-21T11:28:11.735Z,21.75
2023-05-21T11:29:11.706Z,21.90
2023-05-21T11:30:11.681Z,21.89
2023-05-21T11:31:11.705Z,21.93
2023-05-21T11:32:11.670Z,21.94
2023-05-21T11:33:11.702Z,21.73
2023-05-21T11:34:11.648Z,21.63
2023-05-21T11:35:11.630Z,21.64
2023-05-21T11:36:11.635Z,21.74
2023-05-21T11:37:11.620Z,21.75
2023-05-21T11:38:11.597Z,21.53
2023-05-21T11:39:11.597Z,21.49
2023-05-21T11:40:11.585Z,21.48
2023-05-21T11:41:11.560Z,21.45
2023-05-21T11:42:11.564Z,21.37
2023-05-21T11:43:11.567Z,21.46
2023-05-21T11:44:11.522Z,21.59
2023-05-21T11:45:11.519Z,21.59
2023-05-21T11:46:11.582Z,21.63
2023-05-21T11:47:11.506Z,21.63
2023-05-21T11:48:11.505Z,21.71
2023-05-21T11:49:11.470Z,21.82
2023-05-21T11:50:11.465Z,21.98
2023-05-21T11:51:11.462Z,22.14
2023-05-21T11:52:11.458Z,22.12
2023-05-21T11:53:11.434Z,22.02
2023-05-21T11:54:11.422Z,21.99
2023-05-21T11:55:11.405Z,22.01
2023-05-21T11:56:11.415Z,22.06
2023-05-21T11:57:11.388Z,22.01
2023-05-21T11:58:11.397Z,22.06
2023-05-21T11:59:11.369Z,21.86
2023-05-21T12:00:11.361Z,21.90
2023-05-21T12:01:11.346Z,21.90
2023-05-21T12:02:11.333Z,21.94
2023-05-21T12:03:11.382Z,22.04
2023-05-21T12:04:11.334Z,22.08
2023-05-21T12:05:13.156Z,22.08
2023-05-21T12:06:11.353Z,22.05
2023-05-21T12:07:11.284Z,22.19
2023-05-21T12:08:11.312Z,22.30
2023-05-21T12:09:11.253Z,22.31
2023-05-21T12:10:11.257Z,22.27
2023-05-21T12:11:11.240Z,22.23
2023-05-21T12:12:11.219Z,22.24
2023-05-21T12:13:11.208Z,22.21
2023-05-21T12:14:11.273Z,22.14
2023-05-21T12:15:11.847Z,22.14
2023-05-21T12:16:11.199Z,22.12
2023-05-21T12:17:11.172Z,22.20
2023-05-21T12:18:11.163Z,22.09
2023-05-21T12:19:11.159Z,22.06
2023-05-21T12:20:11.144Z,22.12
2023-05-21T12:21:12.538Z,22.20
2023-05-21T12:22:11.102Z,22.29
2023-05-21T12:23:11.097Z,22.26
2023-05-21T12:24:11.097Z,22.30
2023-05-21T12:25:11.082Z,22.36
2023-05-21T12:26:11.056Z,22.27
2023-05-21T12:27:11.051Z,22.33
2023-05-21T12:28:11.035Z,22.49
2023-05-21T12:29:11.046Z,22.59
2023-05-21T12:30:11.103Z,22.56
2023-05-21T12:31:11.016Z,22.56
2023-05-21T12:32:11.039Z,22.70
2023-05-21T12:33:11.034Z,22.81
2023-05-21T12:34:10.989Z,22.69
2023-05-21T12:35:10.983Z,22.72
2023-05-21T12:36:10.951Z,22.82
2023-05-21T12:37:10.945Z,22.74
2023-05-21T12:38:10.925Z,22.81
2023-05-21T12:39:11.419Z,22.93
2023-05-21T12:40:11.062Z,23.07
2023-05-21T12:41:10.899Z,23.11
2023-05-21T12:42:10.888Z,23.14
2023-05-21T12:43:10.889Z,23.01
2023-05-21T12:44:10.871Z,22.94
2023-05-21T12:45:10.854Z,22.99
2023-05-21T12:46:10.872Z,23.09
2023-05-21T12:47:10.834Z,23.18
2023-05-21T12:48:10.930Z,23.25
2023-05-21T12:49:10.822Z,23.18
2023-05-21T12:50:10.845Z,23.26
2023-05-21T12:51:10.793Z,23.25
2023-05-21T12:52:10.777Z,23.35
2023-05-21T12:53:10.789Z,23.38